Morganfld, Kentucky
Current Conditions -  °F | °C
As of 10:15 AM on Saturday 25 Oct 2014 (Local Time) from K5M9 Reporting Station
Overcast Overcast  
Wind Chill: 64°   Ceiling: 4700
Heat Index: 64°   Visibility: 10mi
Dew Point: 57°   Wind: 5mph
Humidity: 79%   Direction: 280°W
Pressure: 30.06"   Gusts: NA
Location:  37.6418°N, 87.8654°W
Report Text: K5M9 251515Z AUTO 28004KT 10SM BKN047 OVC055 18/14 A3006 RMK AO2 T01770140
Loading
Personal Weather Stations






























Interactive Weather Map
Tropical Storm Tracking
New forecast layout! Learn more

10-Day Weather Forecast

Advertisements
Track Severe Weather on mobile